sensor_id;sensor_type;location;lat;lon;timestamp;P1;durP1;ratioP1;P2;durP2;ratioP2
53833;SDS011;39735;51.432;5.482;2022-12-07T00:00:51;25.55;;;12.25;;
53833;SDS011;39735;51.432;5.482;2022-12-07T00:03:16;18.35;;;10.43;;
53833;SDS011;39735;51.432;5.482;2022-12-07T00:05:41;22.55;;;10.75;;
53833;SDS011;39735;51.432;5.482;2022-12-07T00:08:07;14.02;;;10.15;;
53833;SDS011;39735;51.432;5.482;2022-12-07T00:10:35;29.00;;;10.38;;
53833;SDS011;39735;51.432;5.482;2022-12-07T00:13:01;30.45;;;11.93;;
53833;SDS011;39735;51.432;5.482;2022-12-07T00:15:26;14.27;;;9.82;;
53833;SDS011;39735;51.432;5.482;2022-12-07T00:17:51;20.25;;;11.77;;
53833;SDS011;39735;51.432;5.482;2022-12-07T00:20:17;25.15;;;10.95;;
53833;SDS011;39735;51.432;5.482;2022-12-07T00:22:42;14.30;;;10.45;;
53833;SDS011;39735;51.432;5.482;2022-12-07T00:25:07;19.73;;;9.20;;
53833;SDS011;39735;51.432;5.482;2022-12-07T00:27:33;14.00;;;9.05;;
53833;SDS011;39735;51.432;5.482;2022-12-07T00:29:58;18.40;;;9.55;;
53833;SDS011;39735;51.432;5.482;2022-12-07T00:32:23;18.67;;;9.90;;
53833;SDS011;39735;51.432;5.482;2022-12-07T00:34:49;17.67;;;10.00;;
53833;SDS011;39735;51.432;5.482;2022-12-07T00:37:14;38.53;;;11.48;;
53833;SDS011;39735;51.432;5.482;2022-12-07T00:39:39;20.58;;;9.73;;
53833;SDS011;39735;51.432;5.482;2022-12-07T00:42:05;17.13;;;9.73;;
53833;SDS011;39735;51.432;5.482;2022-12-07T00:44:30;19.25;;;10.23;;
53833;SDS011;39735;51.432;5.482;2022-12-07T00:46:55;12.98;;;9.93;;
53833;SDS011;39735;51.432;5.482;2022-12-07T00:49:21;20.48;;;9.57;;
53833;SDS011;39735;51.432;5.482;2022-12-07T00:51:47;21.42;;;10.60;;
53833;SDS011;39735;51.432;5.482;2022-12-07T00:54:13;18.67;;;9.77;;
53833;SDS011;39735;51.432;5.482;2022-12-07T00:56:39;14.82;;;9.63;;
53833;SDS011;39735;51.432;5.482;2022-12-07T00:59:04;13.25;;;9.40;;
53833;SDS011;39735;51.432;5.482;2022-12-07T01:01:31;17.25;;;8.75;;
53833;SDS011;39735;51.432;5.482;2022-12-07T01:03:58;18.40;;;9.52;;
53833;SDS011;39735;51.432;5.482;2022-12-07T01:06:26;14.32;;;9.02;;
53833;SDS011;39735;51.432;5.482;2022-12-07T01:08:51;11.48;;;8.90;;
53833;SDS011;39735;51.432;5.482;2022-12-07T01:11:18;17.45;;;9.88;;
53833;SDS011;39735;51.432;5.482;2022-12-07T01:13:45;14.57;;;9.05;;
53833;SDS011;39735;51.432;5.482;2022-12-07T01:16:11;16.98;;;8.45;;
53833;SDS011;39735;51.432;5.482;2022-12-07T01:18:38;12.57;;;7.93;;
53833;SDS011;39735;51.432;5.482;2022-12-07T01:21:11;12.25;;;8.13;;
53833;SDS011;39735;51.432;5.482;2022-12-07T01:23:40;16.75;;;8.10;;
53833;SDS011;39735;51.432;5.482;2022-12-07T01:26:07;11.95;;;8.35;;
53833;SDS011;39735;51.432;5.482;2022-12-07T01:28:36;12.95;;;8.43;;
53833;SDS011;39735;51.432;5.482;2022-12-07T01:31:03;15.43;;;8.35;;
53833;SDS011;39735;51.432;5.482;2022-12-07T01:33:31;12.25;;;8.18;;
53833;SDS011;39735;51.432;5.482;2022-12-07T01:38:43;13.43;;;7.18;;
53833;SDS011;39735;51.432;5.482;2022-12-07T01:41:10;13.18;;;8.13;;
53833;SDS011;39735;51.432;5.482;2022-12-07T01:43:36;8.32;;;7.40;;
53833;SDS011;39735;51.432;5.482;2022-12-07T01:46:02;12.45;;;7.38;;
53833;SDS011;39735;51.432;5.482;2022-12-07T01:48:31;16.33;;;8.40;;
53833;SDS011;39735;51.432;5.482;2022-12-07T01:51:00;15.77;;;7.15;;
53833;SDS011;39735;51.432;5.482;2022-12-07T01:53:29;14.07;;;7.63;;
53833;SDS011;39735;51.432;5.482;2022-12-07T01:55:55;8.65;;;7.75;;
53833;SDS011;39735;51.432;5.482;2022-12-07T01:58:21;12.05;;;9.52;;
53833;SDS011;39735;51.432;5.482;2022-12-07T02:00:47;12.13;;;7.35;;
53833;SDS011;39735;51.432;5.482;2022-12-07T02:03:18;16.42;;;8.23;;
53833;SDS011;39735;51.432;5.482;2022-12-07T02:05:47;15.13;;;6.75;;
53833;SDS011;39735;51.432;5.482;2022-12-07T02:08:13;8.15;;;6.57;;
53833;SDS011;39735;51.432;5.482;2022-12-07T02:10:39;11.98;;;6.78;;
53833;SDS011;39735;51.432;5.482;2022-12-07T02:13:06;11.35;;;6.85;;
53833;SDS011;39735;51.432;5.482;2022-12-07T02:21:16;15.25;;;7.80;;
53833;SDS011;39735;51.432;5.482;2022-12-07T02:24:15;26.40;;;7.43;;
53833;SDS011;39735;51.432;5.482;2022-12-07T02:35:17;11.63;;;8.07;;
53833;SDS011;39735;51.432;5.482;2022-12-07T02:40:18;9.38;;;7.35;;
53833;SDS011;39735;51.432;5.482;2022-12-07T02:42:47;16.98;;;7.07;;
53833;SDS011;39735;51.432;5.482;2022-12-07T02:45:16;15.50;;;7.25;;
53833;SDS011;39735;51.432;5.482;2022-12-07T02:47:44;13.80;;;7.22;;
53833;SDS011;39735;51.432;5.482;2022-12-07T02:50:10;19.25;;;7.50;;
53833;SDS011;39735;51.432;5.482;2022-12-07T02:52:36;18.42;;;7.53;;
53833;SDS011;39735;51.432;5.482;2022-12-07T02:55:02;9.38;;;5.82;;
53833;SDS011;39735;51.432;5.482;2022-12-07T03:00:51;17.85;;;7.95;;
53833;SDS011;39735;51.432;5.482;2022-12-07T03:03:24;12.65;;;8.10;;
53833;SDS011;39735;51.432;5.482;2022-12-07T03:06:10;8.68;;;5.82;;
53833;SDS011;39735;51.432;5.482;2022-12-07T03:11:25;14.38;;;7.40;;
53833;SDS011;39735;51.432;5.482;2022-12-07T03:13:55;9.93;;;6.38;;
53833;SDS011;39735;51.432;5.482;2022-12-07T03:16:39;12.05;;;7.22;;
53833;SDS011;39735;51.432;5.482;2022-12-07T03:19:16;10.70;;;5.18;;
53833;SDS011;39735;51.432;5.482;2022-12-07T03:21:44;14.65;;;6.90;;
53833;SDS011;39735;51.432;5.482;2022-12-07T03:24:22;12.05;;;5.90;;
53833;SDS011;39735;51.432;5.482;2022-12-07T03:26:51;15.57;;;5.85;;
53833;SDS011;39735;51.432;5.482;2022-12-07T03:29:43;20.77;;;5.82;;
53833;SDS011;39735;51.432;5.482;2022-12-07T03:32:16;15.02;;;6.25;;
53833;SDS011;39735;51.432;5.482;2022-12-07T03:37:55;15.32;;;5.72;;
53833;SDS011;39735;51.432;5.482;2022-12-07T03:40:48;26.48;;;6.60;;
53833;SDS011;39735;51.432;5.482;2022-12-07T03:43:34;17.75;;;8.02;;
53833;SDS011;39735;51.432;5.482;2022-12-07T03:48:46;18.83;;;6.47;;
53833;SDS011;39735;51.432;5.482;2022-12-07T03:51:27;8.63;;;6.00;;
53833;SDS011;39735;51.432;5.482;2022-12-07T03:53:58;13.88;;;5.03;;
53833;SDS011;39735;51.432;5.482;2022-12-07T03:56:27;13.15;;;6.00;;
53833;SDS011;39735;51.432;5.482;2022-12-07T03:58:54;31.98;;;7.15;;
53833;SDS011;39735;51.432;5.482;2022-12-07T04:01:19;16.08;;;6.40;;
53833;SDS011;39735;51.432;5.482;2022-12-07T04:03:45;11.70;;;4.95;;
53833;SDS011;39735;51.432;5.482;2022-12-07T04:06:10;10.57;;;5.47;;
53833;SDS011;39735;51.432;5.482;2022-12-07T04:08:36;10.45;;;4.57;;
53833;SDS011;39735;51.432;5.482;2022-12-07T04:11:01;18.88;;;5.03;;
53833;SDS011;39735;51.432;5.482;2022-12-07T04:13:27;16.95;;;6.28;;
53833;SDS011;39735;51.432;5.482;2022-12-07T04:15:52;15.90;;;6.38;;
53833;SDS011;39735;51.432;5.482;2022-12-07T04:18:17;17.73;;;5.43;;
53833;SDS011;39735;51.432;5.482;2022-12-07T04:20:43;15.55;;;5.97;;
53833;SDS011;39735;51.432;5.482;2022-12-07T04:23:08;20.27;;;6.68;;
53833;SDS011;39735;51.432;5.482;2022-12-07T04:25:33;9.43;;;6.38;;
53833;SDS011;39735;51.432;5.482;2022-12-07T04:27:59;17.70;;;6.05;;
53833;SDS011;39735;51.432;5.482;2022-12-07T04:30:24;30.08;;;7.10;;
53833;SDS011;39735;51.432;5.482;2022-12-07T04:32:49;35.55;;;7.00;;
53833;SDS011;39735;51.432;5.482;2022-12-07T04:35:15;21.63;;;7.68;;
53833;SDS011;39735;51.432;5.482;2022-12-07T04:37:40;15.85;;;6.50;;
53833;SDS011;39735;51.432;5.482;2022-12-07T04:40:10;12.45;;;5.85;;
53833;SDS011;39735;51.432;5.482;2022-12-07T04:42:36;12.30;;;6.30;;
53833;SDS011;39735;51.432;5.482;2022-12-07T04:45:02;11.77;;;5.45;;
53833;SDS011;39735;51.432;5.482;2022-12-07T04:47:28;11.38;;;5.70;;
53833;SDS011;39735;51.432;5.482;2022-12-07T04:49:54;15.80;;;5.53;;
53833;SDS011;39735;51.432;5.482;2022-12-07T04:52:19;10.65;;;5.68;;
53833;SDS011;39735;51.432;5.482;2022-12-07T04:54:45;30.40;;;5.70;;
53833;SDS011;39735;51.432;5.482;2022-12-07T04:57:10;14.90;;;6.60;;
53833;SDS011;39735;51.432;5.482;2022-12-07T04:59:36;11.27;;;6.05;;
53833;SDS011;39735;51.432;5.482;2022-12-07T05:02:01;20.48;;;7.68;;
53833;SDS011;39735;51.432;5.482;2022-12-07T05:04:26;12.82;;;6.05;;
53833;SDS011;39735;51.432;5.482;2022-12-07T05:06:52;26.58;;;6.93;;
53833;SDS011;39735;51.432;5.482;2022-12-07T05:09:17;13.05;;;5.97;;
53833;SDS011;39735;51.432;5.482;2022-12-07T05:11:42;19.92;;;5.82;;
53833;SDS011;39735;51.432;5.482;2022-12-07T05:14:12;9.27;;;6.07;;
53833;SDS011;39735;51.432;5.482;2022-12-07T05:16:41;7.75;;;5.22;;
53833;SDS011;39735;51.432;5.482;2022-12-07T05:19:08;9.45;;;4.85;;
53833;SDS011;39735;51.432;5.482;2022-12-07T05:21:34;8.75;;;6.00;;
53833;SDS011;39735;51.432;5.482;2022-12-07T05:23:59;29.23;;;7.07;;
53833;SDS011;39735;51.432;5.482;2022-12-07T05:26:25;12.40;;;7.70;;
53833;SDS011;39735;51.432;5.482;2022-12-07T05:28:54;11.00;;;4.63;;
53833;SDS011;39735;51.432;5.482;2022-12-07T05:31:20;16.27;;;6.30;;
53833;SDS011;39735;51.432;5.482;2022-12-07T05:33:46;15.60;;;5.22;;
53833;SDS011;39735;51.432;5.482;2022-12-07T05:36:12;10.77;;;5.88;;
53833;SDS011;39735;51.432;5.482;2022-12-07T05:38:37;11.88;;;4.35;;
53833;SDS011;39735;51.432;5.482;2022-12-07T05:41:03;11.00;;;5.22;;
53833;SDS011;39735;51.432;5.482;2022-12-07T05:43:29;11.88;;;5.78;;
53833;SDS011;39735;51.432;5.482;2022-12-07T05:45:55;17.30;;;4.32;;
53833;SDS011;39735;51.432;5.482;2022-12-07T05:48:21;15.80;;;4.85;;
53833;SDS011;39735;51.432;5.482;2022-12-07T05:50:50;21.27;;;5.78;;
53833;SDS011;39735;51.432;5.482;2022-12-07T05:53:16;12.02;;;4.80;;
53833;SDS011;39735;51.432;5.482;2022-12-07T05:55:41;12.60;;;5.63;;
53833;SDS011;39735;51.432;5.482;2022-12-07T05:58:07;18.40;;;5.35;;
53833;SDS011;39735;51.432;5.482;2022-12-07T06:00:51;15.95;;;5.15;;
53833;SDS011;39735;51.432;5.482;2022-12-07T06:03:18;23.25;;;6.55;;
53833;SDS011;39735;51.432;5.482;2022-12-07T06:05:44;7.80;;;5.20;;
53833;SDS011;39735;51.432;5.482;2022-12-07T06:08:09;24.08;;;5.80;;
53833;SDS011;39735;51.432;5.482;2022-12-07T06:10:34;11.40;;;5.20;;
53833;SDS011;39735;51.432;5.482;2022-12-07T06:13:00;19.55;;;5.82;;
53833;SDS011;39735;51.432;5.482;2022-12-07T06:15:25;14.02;;;5.30;;
53833;SDS011;39735;51.432;5.482;2022-12-07T06:17:51;17.95;;;5.93;;
53833;SDS011;39735;51.432;5.482;2022-12-07T06:20:16;14.73;;;4.65;;
53833;SDS011;39735;51.432;5.482;2022-12-07T06:22:41;16.67;;;5.78;;
53833;SDS011;39735;51.432;5.482;2022-12-07T06:25:07;8.38;;;3.80;;
53833;SDS011;39735;51.432;5.482;2022-12-07T06:27:32;17.95;;;4.45;;
53833;SDS011;39735;51.432;5.482;2022-12-07T06:29:58;18.02;;;5.30;;
53833;SDS011;39735;51.432;5.482;2022-12-07T06:32:24;14.98;;;7.55;;
53833;SDS011;39735;51.432;5.482;2022-12-07T06:34:50;6.25;;;3.83;;
53833;SDS011;39735;51.432;5.482;2022-12-07T06:37:15;7.68;;;5.10;;
53833;SDS011;39735;51.432;5.482;2022-12-07T06:39:41;17.73;;;4.57;;
53833;SDS011;39735;51.432;5.482;2022-12-07T06:42:06;10.15;;;4.53;;
53833;SDS011;39735;51.432;5.482;2022-12-07T06:44:32;6.20;;;4.15;;
53833;SDS011;39735;51.432;5.482;2022-12-07T06:46:57;16.67;;;5.38;;
53833;SDS011;39735;51.432;5.482;2022-12-07T06:49:23;26.23;;;5.93;;
53833;SDS011;39735;51.432;5.482;2022-12-07T06:51:48;10.70;;;4.93;;
53833;SDS011;39735;51.432;5.482;2022-12-07T06:54:14;14.48;;;4.13;;
53833;SDS011;39735;51.432;5.482;2022-12-07T06:56:40;17.98;;;5.78;;
53833;SDS011;39735;51.432;5.482;2022-12-07T06:59:05;9.90;;;3.72;;
53833;SDS011;39735;51.432;5.482;2022-12-07T07:01:32;8.85;;;3.67;;
53833;SDS011;39735;51.432;5.482;2022-12-07T07:03:58;8.65;;;3.95;;
53833;SDS011;39735;51.432;5.482;2022-12-07T07:06:24;10.98;;;4.60;;
53833;SDS011;39735;51.432;5.482;2022-12-07T07:08:49;20.13;;;4.90;;
53833;SDS011;39735;51.432;5.482;2022-12-07T07:11:15;11.70;;;4.80;;
53833;SDS011;39735;51.432;5.482;2022-12-07T07:13:40;15.43;;;4.53;;
53833;SDS011;39735;51.432;5.482;2022-12-07T07:16:06;15.77;;;5.63;;
53833;SDS011;39735;51.432;5.482;2022-12-07T07:18:31;8.63;;;5.43;;
53833;SDS011;39735;51.432;5.482;2022-12-07T07:20:57;21.38;;;5.47;;
53833;SDS011;39735;51.432;5.482;2022-12-07T07:23:22;25.55;;;6.68;;
53833;SDS011;39735;51.432;5.482;2022-12-07T07:25:48;22.70;;;7.03;;
53833;SDS011;39735;51.432;5.482;2022-12-07T07:28:13;13.25;;;6.68;;
53833;SDS011;39735;51.432;5.482;2022-12-07T07:30:39;8.18;;;6.75;;
53833;SDS011;39735;51.432;5.482;2022-12-07T07:33:05;18.42;;;5.32;;
53833;SDS011;39735;51.432;5.482;2022-12-07T07:35:31;16.90;;;7.18;;
53833;SDS011;39735;51.432;5.482;2022-12-07T07:37:57;17.63;;;7.65;;
53833;SDS011;39735;51.432;5.482;2022-12-07T07:40:23;12.02;;;7.72;;
53833;SDS011;39735;51.432;5.482;2022-12-07T07:42:50;23.35;;;7.60;;
53833;SDS011;39735;51.432;5.482;2022-12-07T07:45:16;11.38;;;6.65;;
53833;SDS011;39735;51.432;5.482;2022-12-07T07:47:42;31.23;;;8.48;;
53833;SDS011;39735;51.432;5.482;2022-12-07T07:50:07;26.92;;;6.95;;
53833;SDS011;39735;51.432;5.482;2022-12-07T07:52:33;22.95;;;8.20;;
53833;SDS011;39735;51.432;5.482;2022-12-07T07:54:58;26.88;;;8.98;;
53833;SDS011;39735;51.432;5.482;2022-12-07T07:57:23;45.45;;;8.50;;
53833;SDS011;39735;51.432;5.482;2022-12-07T07:59:49;18.90;;;9.23;;
53833;SDS011;39735;51.432;5.482;2022-12-07T08:02:15;17.55;;;7.05;;
53833;SDS011;39735;51.432;5.482;2022-12-07T08:04:42;15.00;;;9.35;;
53833;SDS011;39735;51.432;5.482;2022-12-07T08:07:07;29.88;;;7.55;;
53833;SDS011;39735;51.432;5.482;2022-12-07T08:09:32;22.77;;;7.50;;
53833;SDS011;39735;51.432;5.482;2022-12-07T08:11:58;14.52;;;7.45;;
53833;SDS011;39735;51.432;5.482;2022-12-07T08:14:23;21.70;;;8.95;;
53833;SDS011;39735;51.432;5.482;2022-12-07T08:16:49;22.95;;;10.60;;
53833;SDS011;39735;51.432;5.482;2022-12-07T08:19:14;16.77;;;7.55;;
53833;SDS011;39735;51.432;5.482;2022-12-07T08:21:40;12.82;;;8.75;;
53833;SDS011;39735;51.432;5.482;2022-12-07T08:24:05;24.58;;;9.80;;
53833;SDS011;39735;51.432;5.482;2022-12-07T08:26:31;29.00;;;10.05;;
53833;SDS011;39735;51.432;5.482;2022-12-07T08:28:57;21.17;;;8.52;;
53833;SDS011;39735;51.432;5.482;2022-12-07T08:31:22;22.42;;;8.73;;
53833;SDS011;39735;51.432;5.482;2022-12-07T08:33:47;28.80;;;10.00;;
53833;SDS011;39735;51.432;5.482;2022-12-07T08:36:13;16.77;;;8.07;;
53833;SDS011;39735;51.432;5.482;2022-12-07T08:38:39;31.90;;;9.20;;
53833;SDS011;39735;51.432;5.482;2022-12-07T08:41:06;22.80;;;9.25;;
53833;SDS011;39735;51.432;5.482;2022-12-07T08:43:32;18.77;;;9.23;;
53833;SDS011;39735;51.432;5.482;2022-12-07T08:46:03;20.67;;;9.95;;
53833;SDS011;39735;51.432;5.482;2022-12-07T08:48:36;18.70;;;8.55;;
53833;SDS011;39735;51.432;5.482;2022-12-07T08:51:04;17.02;;;7.55;;
53833;SDS011;39735;51.432;5.482;2022-12-07T08:53:30;27.23;;;7.32;;
53833;SDS011;39735;51.432;5.482;2022-12-07T08:55:56;19.88;;;6.60;;
53833;SDS011;39735;51.432;5.482;2022-12-07T08:58:22;26.08;;;8.57;;
53833;SDS011;39735;51.432;5.482;2022-12-07T09:00:48;11.95;;;6.70;;
53833;SDS011;39735;51.432;5.482;2022-12-07T09:03:13;21.92;;;7.50;;
53833;SDS011;39735;51.432;5.482;2022-12-07T09:05:39;14.75;;;8.35;;
53833;SDS011;39735;51.432;5.482;2022-12-07T09:08:04;14.90;;;6.53;;
53833;SDS011;39735;51.432;5.482;2022-12-07T09:10:30;13.18;;;5.70;;
53833;SDS011;39735;51.432;5.482;2022-12-07T09:12:55;20.05;;;6.20;;
53833;SDS011;39735;51.432;5.482;2022-12-07T09:15:20;16.80;;;6.60;;
53833;SDS011;39735;51.432;5.482;2022-12-07T09:17:46;8.27;;;6.72;;
53833;SDS011;39735;51.432;5.482;2022-12-07T09:20:11;8.63;;;5.95;;
53833;SDS011;39735;51.432;5.482;2022-12-07T09:22:37;11.15;;;6.03;;
53833;SDS011;39735;51.432;5.482;2022-12-07T09:25:03;15.88;;;5.93;;
53833;SDS011;39735;51.432;5.482;2022-12-07T09:27:29;32.90;;;7.57;;
53833;SDS011;39735;51.432;5.482;2022-12-07T09:29:54;25.75;;;6.72;;
53833;SDS011;39735;51.432;5.482;2022-12-07T09:32:20;14.82;;;6.28;;
53833;SDS011;39735;51.432;5.482;2022-12-07T09:34:46;41.50;;;11.40;;
53833;SDS011;39735;51.432;5.482;2022-12-07T09:37:11;16.33;;;6.57;;
53833;SDS011;39735;51.432;5.482;2022-12-07T09:39:40;9.95;;;6.05;;
53833;SDS011;39735;51.432;5.482;2022-12-07T09:42:06;9.93;;;5.28;;
53833;SDS011;39735;51.432;5.482;2022-12-07T09:44:32;12.88;;;6.13;;
53833;SDS011;39735;51.432;5.482;2022-12-07T09:46:58;15.15;;;5.47;;
53833;SDS011;39735;51.432;5.482;2022-12-07T09:49:24;16.40;;;5.68;;
53833;SDS011;39735;51.432;5.482;2022-12-07T09:52:17;19.38;;;7.18;;
53833;SDS011;39735;51.432;5.482;2022-12-07T09:54:45;23.42;;;6.13;;
53833;SDS011;39735;51.432;5.482;2022-12-07T09:57:12;14.93;;;4.57;;
53833;SDS011;39735;51.432;5.482;2022-12-07T09:59:38;13.07;;;7.20;;
53833;SDS011;39735;51.432;5.482;2022-12-07T10:05:07;9.93;;;5.50;;
53833;SDS011;39735;51.432;5.482;2022-12-07T10:07:37;10.27;;;7.13;;
53833;SDS011;39735;51.432;5.482;2022-12-07T10:10:04;17.83;;;6.35;;
53833;SDS011;39735;51.432;5.482;2022-12-07T10:12:31;9.93;;;5.60;;
53833;SDS011;39735;51.432;5.482;2022-12-07T10:15:43;13.05;;;5.47;;
53833;SDS011;39735;51.432;5.482;2022-12-07T10:18:17;13.45;;;6.65;;
53833;SDS011;39735;51.432;5.482;2022-12-07T10:20:49;16.42;;;6.43;;
53833;SDS011;39735;51.432;5.482;2022-12-07T10:23:37;16.02;;;5.53;;
53833;SDS011;39735;51.432;5.482;2022-12-07T10:26:19;27.65;;;6.70;;
53833;SDS011;39735;51.432;5.482;2022-12-07T10:28:47;21.08;;;6.40;;
53833;SDS011;39735;51.432;5.482;2022-12-07T10:31:20;16.67;;;7.72;;
53833;SDS011;39735;51.432;5.482;2022-12-07T10:33:54;18.95;;;5.82;;
53833;SDS011;39735;51.432;5.482;2022-12-07T10:39:13;15.25;;;5.57;;
53833;SDS011;39735;51.432;5.482;2022-12-07T10:41:58;19.58;;;6.28;;
53833;SDS011;39735;51.432;5.482;2022-12-07T10:44:26;31.48;;;8.35;;
53833;SDS011;39735;51.432;5.482;2022-12-07T10:49:55;26.67;;;6.55;;
53833;SDS011;39735;51.432;5.482;2022-12-07T11:09:26;12.35;;;5.55;;
53833;SDS011;39735;51.432;5.482;2022-12-07T11:12:09;16.98;;;4.85;;
53833;SDS011;39735;51.432;5.482;2022-12-07T11:17:12;9.95;;;3.97;;
53833;SDS011;39735;51.432;5.482;2022-12-07T11:36:02;20.80;;;4.05;;
53833;SDS011;39735;51.432;5.482;2022-12-07T11:41:01;14.90;;;3.80;;
53833;SDS011;39735;51.432;5.482;2022-12-07T11:43:37;7.90;;;3.65;;
53833;SDS011;39735;51.432;5.482;2022-12-07T11:46:29;15.40;;;4.07;;
53833;SDS011;39735;51.432;5.482;2022-12-07T11:51:29;4.80;;;2.75;;
53833;SDS011;39735;51.432;5.482;2022-12-07T11:54:02;9.95;;;2.50;;
53833;SDS011;39735;51.432;5.482;2022-12-07T11:56:30;22.05;;;4.28;;
53833;SDS011;39735;51.432;5.482;2022-12-07T12:06:42;25.75;;;4.15;;
53833;SDS011;39735;51.432;5.482;2022-12-07T12:09:12;18.10;;;3.75;;
53833;SDS011;39735;51.432;5.482;2022-12-07T12:14:33;4.70;;;2.42;;
53833;SDS011;39735;51.432;5.482;2022-12-07T12:20:00;9.10;;;3.05;;
53833;SDS011;39735;51.432;5.482;2022-12-07T12:22:32;11.65;;;2.65;;
53833;SDS011;39735;51.432;5.482;2022-12-07T12:25:02;14.67;;;1.97;;
53833;SDS011;39735;51.432;5.482;2022-12-07T12:27:30;15.00;;;3.47;;
53833;SDS011;39735;51.432;5.482;2022-12-07T12:29:59;13.88;;;1.83;;
53833;SDS011;39735;51.432;5.482;2022-12-07T12:37:52;4.95;;;2.20;;
53833;SDS011;39735;51.432;5.482;2022-12-07T12:40:40;11.23;;;2.15;;
53833;SDS011;39735;51.432;5.482;2022-12-07T12:43:27;3.03;;;2.05;;
53833;SDS011;39735;51.432;5.482;2022-12-07T12:51:53;12.90;;;2.97;;
53833;SDS011;39735;51.432;5.482;2022-12-07T12:54:23;8.32;;;2.08;;
53833;SDS011;39735;51.432;5.482;2022-12-07T12:59:42;19.50;;;2.30;;
53833;SDS011;39735;51.432;5.482;2022-12-07T13:02:45;4.30;;;2.28;;
53833;SDS011;39735;51.432;5.482;2022-12-07T13:05:21;24.90;;;2.42;;
53833;SDS011;39735;51.432;5.482;2022-12-07T13:12:57;13.57;;;2.17;;
53833;SDS011;39735;51.432;5.482;2022-12-07T13:15:46;7.93;;;2.80;;
53833;SDS011;39735;51.432;5.482;2022-12-07T13:20:56;24.10;;;1.95;;
53833;SDS011;39735;51.432;5.482;2022-12-07T13:31:51;17.67;;;2.85;;
53833;SDS011;39735;51.432;5.482;2022-12-07T13:37:02;6.47;;;1.85;;
53833;SDS011;39735;51.432;5.482;2022-12-07T13:39:34;5.80;;;1.27;;
53833;SDS011;39735;51.432;5.482;2022-12-07T13:42:06;18.95;;;1.35;;
53833;SDS011;39735;51.432;5.482;2022-12-07T13:44:39;14.80;;;2.10;;
53833;SDS011;39735;51.432;5.482;2022-12-07T13:47:07;19.23;;;2.25;;
53833;SDS011;39735;51.432;5.482;2022-12-07T13:49:51;15.50;;;2.92;;
53833;SDS011;39735;51.432;5.482;2022-12-07T13:57:24;17.38;;;2.55;;
53833;SDS011;39735;51.432;5.482;2022-12-07T13:59:50;6.72;;;1.95;;
53833;SDS011;39735;51.432;5.482;2022-12-07T14:04:51;9.38;;;2.78;;
53833;SDS011;39735;51.432;5.482;2022-12-07T14:07:24;5.15;;;1.40;;
53833;SDS011;39735;51.432;5.482;2022-12-07T14:09:54;12.15;;;2.17;;
53833;SDS011;39735;51.432;5.482;2022-12-07T14:12:19;4.65;;;1.80;;
53833;SDS011;39735;51.432;5.482;2022-12-07T14:14:48;22.25;;;3.00;;
53833;SDS011;39735;51.432;5.482;2022-12-07T14:17:18;6.25;;;2.17;;
53833;SDS011;39735;51.432;5.482;2022-12-07T14:22:22;12.02;;;2.03;;
53833;SDS011;39735;51.432;5.482;2022-12-07T14:24:58;6.68;;;1.95;;
53833;SDS011;39735;51.432;5.482;2022-12-07T14:27:24;7.53;;;1.85;;
53833;SDS011;39735;51.432;5.482;2022-12-07T14:29:55;10.38;;;2.45;;
53833;SDS011;39735;51.432;5.482;2022-12-07T14:32:25;7.78;;;1.75;;
53833;SDS011;39735;51.432;5.482;2022-12-07T14:37:29;7.18;;;2.22;;
53833;SDS011;39735;51.432;5.482;2022-12-07T14:39:55;10.32;;;2.72;;
53833;SDS011;39735;51.432;5.482;2022-12-07T14:42:21;12.32;;;2.72;;
53833;SDS011;39735;51.432;5.482;2022-12-07T14:44:48;9.13;;;2.45;;
53833;SDS011;39735;51.432;5.482;2022-12-07T14:47:14;6.30;;;2.47;;
53833;SDS011;39735;51.432;5.482;2022-12-07T14:49:39;5.03;;;2.53;;
53833;SDS011;39735;51.432;5.482;2022-12-07T14:52:05;9.43;;;3.50;;
53833;SDS011;39735;51.432;5.482;2022-12-07T14:54:31;5.70;;;3.63;;
53833;SDS011;39735;51.432;5.482;2022-12-07T14:56:57;18.42;;;3.83;;
53833;SDS011;39735;51.432;5.482;2022-12-07T14:59:23;5.88;;;2.15;;
53833;SDS011;39735;51.432;5.482;2022-12-07T15:01:49;4.45;;;2.58;;
53833;SDS011;39735;51.432;5.482;2022-12-07T15:04:14;13.45;;;2.72;;
53833;SDS011;39735;51.432;5.482;2022-12-07T15:06:39;10.73;;;3.30;;
53833;SDS011;39735;51.432;5.482;2022-12-07T15:09:08;4.22;;;2.33;;
53833;SDS011;39735;51.432;5.482;2022-12-07T15:11:34;7.75;;;2.15;;
53833;SDS011;39735;51.432;5.482;2022-12-07T15:13:59;4.55;;;1.98;;
53833;SDS011;39735;51.432;5.482;2022-12-07T15:16:38;10.23;;;3.03;;
53833;SDS011;39735;51.432;5.482;2022-12-07T15:19:05;13.30;;;1.83;;
53833;SDS011;39735;51.432;5.482;2022-12-07T15:21:31;14.98;;;2.95;;
53833;SDS011;39735;51.432;5.482;2022-12-07T15:23:56;8.32;;;1.30;;
53833;SDS011;39735;51.432;5.482;2022-12-07T15:26:22;3.67;;;1.15;;
53833;SDS011;39735;51.432;5.482;2022-12-07T15:28:47;2.42;;;2.00;;
53833;SDS011;39735;51.432;5.482;2022-12-07T15:31:13;19.48;;;2.78;;
53833;SDS011;39735;51.432;5.482;2022-12-07T15:33:39;4.50;;;1.20;;
53833;SDS011;39735;51.432;5.482;2022-12-07T15:36:04;14.32;;;1.60;;
53833;SDS011;39735;51.432;5.482;2022-12-07T15:38:30;4.40;;;1.92;;
53833;SDS011;39735;51.432;5.482;2022-12-07T15:40:55;7.18;;;1.35;;
53833;SDS011;39735;51.432;5.482;2022-12-07T15:43:21;6.60;;;2.40;;
53833;SDS011;39735;51.432;5.482;2022-12-07T15:46:05;11.10;;;3.10;;
53833;SDS011;39735;51.432;5.482;2022-12-07T15:48:31;6.22;;;1.45;;
53833;SDS011;39735;51.432;5.482;2022-12-07T15:51:06;9.57;;;2.33;;
53833;SDS011;39735;51.432;5.482;2022-12-07T15:53:32;17.48;;;1.95;;
53833;SDS011;39735;51.432;5.482;2022-12-07T15:55:58;2.50;;;1.52;;
53833;SDS011;39735;51.432;5.482;2022-12-07T15:58:23;10.38;;;2.20;;
53833;SDS011;39735;51.432;5.482;2022-12-07T16:00:49;9.57;;;2.08;;
53833;SDS011;39735;51.432;5.482;2022-12-07T16:03:14;9.00;;;4.57;;
53833;SDS011;39735;51.432;5.482;2022-12-07T16:05:39;3.28;;;2.35;;
53833;SDS011;39735;51.432;5.482;2022-12-07T16:08:05;2.35;;;1.95;;
53833;SDS011;39735;51.432;5.482;2022-12-07T16:10:30;20.23;;;3.85;;
53833;SDS011;39735;51.432;5.482;2022-12-07T16:12:56;6.78;;;2.03;;
53833;SDS011;39735;51.432;5.482;2022-12-07T16:15:21;2.65;;;1.85;;
53833;SDS011;39735;51.432;5.482;2022-12-07T16:17:46;4.28;;;2.95;;
53833;SDS011;39735;51.432;5.482;2022-12-07T16:20:12;6.78;;;2.08;;
53833;SDS011;39735;51.432;5.482;2022-12-07T16:22:37;8.27;;;2.38;;
53833;SDS011;39735;51.432;5.482;2022-12-07T16:25:03;4.90;;;1.75;;
53833;SDS011;39735;51.432;5.482;2022-12-07T16:27:29;10.82;;;3.05;;
53833;SDS011;39735;51.432;5.482;2022-12-07T16:29:54;9.63;;;3.55;;
53833;SDS011;39735;51.432;5.482;2022-12-07T16:32:20;9.43;;;2.92;;
53833;SDS011;39735;51.432;5.482;2022-12-07T16:34:45;10.55;;;3.03;;
53833;SDS011;39735;51.432;5.482;2022-12-07T16:37:10;13.50;;;3.17;;
53833;SDS011;39735;51.432;5.482;2022-12-07T16:39:36;12.70;;;5.00;;
53833;SDS011;39735;51.432;5.482;2022-12-07T16:42:01;12.13;;;3.95;;
53833;SDS011;39735;51.432;5.482;2022-12-07T16:44:27;11.35;;;3.83;;
53833;SDS011;39735;51.432;5.482;2022-12-07T16:46:53;13.70;;;2.50;;
53833;SDS011;39735;51.432;5.482;2022-12-07T16:49:18;6.70;;;2.42;;
53833;SDS011;39735;51.432;5.482;2022-12-07T16:51:44;8.13;;;2.78;;
53833;SDS011;39735;51.432;5.482;2022-12-07T16:54:11;22.50;;;4.13;;
53833;SDS011;39735;51.432;5.482;2022-12-07T16:56:37;10.35;;;2.70;;
53833;SDS011;39735;51.432;5.482;2022-12-07T16:59:03;5.03;;;2.70;;
53833;SDS011;39735;51.432;5.482;2022-12-07T17:01:28;6.05;;;2.60;;
53833;SDS011;39735;51.432;5.482;2022-12-07T17:03:54;5.47;;;3.03;;